sensor_id;sensor_type;location;lat;lon;timestamp;pressure;altitude;pressure_sealevel;temperature;humidity
46756;BME280;32506;52.826;-1.192;2023-11-21T00:00:51;100976.34;;;10.96;67.60
46756;BME280;32506;52.826;-1.192;2023-11-21T00:03:16;100978.00;;;10.97;67.63
46756;BME280;32506;52.826;-1.192;2023-11-21T00:05:42;100972.84;;;10.95;67.82
46756;BME280;32506;52.826;-1.192;2023-11-21T00:08:08;100980.88;;;10.95;67.87
46756;BME280;32506;52.826;-1.192;2023-11-21T00:10:34;100982.75;;;10.95;67.97
46756;BME280;32506;52.826;-1.192;2023-11-21T00:13:00;100982.75;;;10.95;67.71
46756;BME280;32506;52.826;-1.192;2023-11-21T00:15:27;100991.59;;;10.95;67.50
46756;BME280;32506;52.826;-1.192;2023-11-21T00:17:53;100993.66;;;10.93;67.65
46756;BME280;32506;52.826;-1.192;2023-11-21T00:20:18;100990.13;;;10.93;67.48
46756;BME280;32506;52.826;-1.192;2023-11-21T00:22:44;101005.16;;;10.94;67.63
46756;BME280;32506;52.826;-1.192;2023-11-21T00:25:10;100993.81;;;10.91;67.77
46756;BME280;32506;52.826;-1.192;2023-11-21T00:27:36;101013.38;;;10.92;67.39
46756;BME280;32506;52.826;-1.192;2023-11-21T00:30:02;101013.59;;;10.90;67.52
46756;BME280;32506;52.826;-1.192;2023-11-21T00:32:29;101026.97;;;10.90;67.68
46756;BME280;32506;52.826;-1.192;2023-11-21T00:34:55;101031.47;;;10.90;67.75
46756;BME280;32506;52.826;-1.192;2023-11-21T00:37:20;101019.97;;;10.89;67.46
46756;BME280;32506;52.826;-1.192;2023-11-21T00:39:45;101029.00;;;10.88;67.64
46756;BME280;32506;52.826;-1.192;2023-11-21T00:42:11;101038.91;;;10.88;67.71
46756;BME280;32506;52.826;-1.192;2023-11-21T00:44:39;101038.06;;;10.87;67.52
46756;BME280;32506;52.826;-1.192;2023-11-21T00:47:05;101045.47;;;10.85;67.41
46756;BME280;32506;52.826;-1.192;2023-11-21T00:49:30;101043.59;;;10.86;67.31
46756;BME280;32506;52.826;-1.192;2023-11-21T00:51:56;101041.16;;;10.84;67.45
46756;BME280;32506;52.826;-1.192;2023-11-21T00:54:23;101045.69;;;10.84;67.61
46756;BME280;32506;52.826;-1.192;2023-11-21T00:56:48;101044.03;;;10.83;67.66
46756;BME280;32506;52.826;-1.192;2023-11-21T00:59:14;101051.19;;;10.82;67.35
46756;BME280;32506;52.826;-1.192;2023-11-21T01:01:39;101053.88;;;10.82;67.38
46756;BME280;32506;52.826;-1.192;2023-11-21T01:04:05;101058.63;;;10.80;67.38
46756;BME280;32506;52.826;-1.192;2023-11-21T01:06:32;101055.13;;;10.80;67.55
46756;BME280;32506;52.826;-1.192;2023-11-21T01:08:57;101056.97;;;10.79;67.52
46756;BME280;32506;52.826;-1.192;2023-11-21T01:11:23;101063.34;;;10.78;67.66
46756;BME280;32506;52.826;-1.192;2023-11-21T01:13:48;101066.00;;;10.78;67.40
46756;BME280;32506;52.826;-1.192;2023-11-21T01:16:14;101064.38;;;10.77;67.73
46756;BME280;32506;52.826;-1.192;2023-11-21T01:18:39;101064.38;;;10.77;67.50
46756;BME280;32506;52.826;-1.192;2023-11-21T01:21:05;101073.41;;;10.76;67.44
46756;BME280;32506;52.826;-1.192;2023-11-21T01:23:30;101076.91;;;10.77;67.59
46756;BME280;32506;52.826;-1.192;2023-11-21T01:25:56;101081.44;;;10.76;67.62
46756;BME280;32506;52.826;-1.192;2023-11-21T01:28:22;101091.28;;;10.75;67.36
46756;BME280;32506;52.826;-1.192;2023-11-21T01:30:48;101100.38;;;10.74;67.33
46756;BME280;32506;52.826;-1.192;2023-11-21T01:33:14;101094.19;;;10.74;67.54
46756;BME280;32506;52.826;-1.192;2023-11-21T01:35:43;101101.19;;;10.75;67.41
46756;BME280;32506;52.826;-1.192;2023-11-21T01:38:11;101107.75;;;10.72;67.64
46756;BME280;32506;52.826;-1.192;2023-11-21T01:40:36;101107.53;;;10.74;67.52
46756;BME280;32506;52.826;-1.192;2023-11-21T01:43:02;101117.63;;;10.72;67.32
46756;BME280;32506;52.826;-1.192;2023-11-21T01:45:30;101118.44;;;10.72;67.52
46756;BME280;32506;52.826;-1.192;2023-11-21T01:48:00;101122.13;;;10.71;67.40
46756;BME280;32506;52.826;-1.192;2023-11-21T01:50:26;101126.66;;;10.71;67.54
46756;BME280;32506;52.826;-1.192;2023-11-21T01:52:51;101129.34;;;10.71;67.38
46756;BME280;32506;52.826;-1.192;2023-11-21T01:55:18;101140.22;;;10.69;67.56
46756;BME280;32506;52.826;-1.192;2023-11-21T01:57:44;101141.03;;;10.70;67.53
46756;BME280;32506;52.826;-1.192;2023-11-21T02:00:11;101140.22;;;10.69;67.31
46756;BME280;32506;52.826;-1.192;2023-11-21T02:02:45;101143.13;;;10.68;67.38
46756;BME280;32506;52.826;-1.192;2023-11-21T02:05:18;101142.28;;;10.67;67.50
46756;BME280;32506;52.826;-1.192;2023-11-21T02:07:44;101150.28;;;10.67;67.23
46756;BME280;32506;52.826;-1.192;2023-11-21T02:10:10;101150.50;;;10.66;67.50
46756;BME280;32506;52.826;-1.192;2023-11-21T02:12:40;101163.84;;;10.66;67.48
46756;BME280;32506;52.826;-1.192;2023-11-21T02:15:06;101176.41;;;10.65;67.38
46756;BME280;32506;52.826;-1.192;2023-11-21T02:17:38;101179.28;;;10.64;67.11
46756;BME280;32506;52.826;-1.192;2023-11-21T02:20:04;101180.09;;;10.64;67.23
46756;BME280;32506;52.826;-1.192;2023-11-21T02:22:34;101194.47;;;10.63;66.93
46756;BME280;32506;52.826;-1.192;2023-11-21T02:25:03;101193.66;;;10.63;66.98
46756;BME280;32506;52.826;-1.192;2023-11-21T02:27:29;101199.03;;;10.63;67.16
46756;BME280;32506;52.826;-1.192;2023-11-21T02:29:54;101197.34;;;10.62;67.14
46756;BME280;32506;52.826;-1.192;2023-11-21T02:32:19;101193.03;;;10.61;66.87
46756;BME280;32506;52.826;-1.192;2023-11-21T02:34:48;101193.03;;;10.61;66.98
46756;BME280;32506;52.826;-1.192;2023-11-21T02:37:13;101187.88;;;10.59;66.87
46756;BME280;32506;52.826;-1.192;2023-11-21T02:39:39;101189.75;;;10.58;66.81
46756;BME280;32506;52.826;-1.192;2023-11-21T02:42:04;101188.91;;;10.58;66.95
46756;BME280;32506;52.826;-1.192;2023-11-21T02:44:30;101201.66;;;10.56;66.84
46756;BME280;32506;52.826;-1.192;2023-11-21T02:46:55;101207.63;;;10.58;66.87
46756;BME280;32506;52.826;-1.192;2023-11-21T02:49:23;101211.53;;;10.55;66.88
46756;BME280;32506;52.826;-1.192;2023-11-21T02:51:48;101211.53;;;10.55;66.63
46756;BME280;32506;52.826;-1.192;2023-11-21T02:54:14;101215.22;;;10.54;66.92
46756;BME280;32506;52.826;-1.192;2023-11-21T02:56:39;101211.91;;;10.52;66.74
46756;BME280;32506;52.826;-1.192;2023-11-21T02:59:05;101208.41;;;10.52;66.78
46756;BME280;32506;52.826;-1.192;2023-11-21T03:01:30;101212.09;;;10.51;66.68
46756;BME280;32506;52.826;-1.192;2023-11-21T03:03:57;101216.63;;;10.50;66.85
46756;BME280;32506;52.826;-1.192;2023-11-21T03:06:22;101212.31;;;10.49;66.71
46756;BME280;32506;52.826;-1.192;2023-11-21T03:08:48;101224.00;;;10.48;66.81
46756;BME280;32506;52.826;-1.192;2023-11-21T03:11:14;101232.03;;;10.48;66.88
46756;BME280;32506;52.826;-1.192;2023-11-21T03:13:42;101226.88;;;10.47;66.58
46756;BME280;32506;52.826;-1.192;2023-11-21T03:16:09;101230.38;;;10.47;66.83
46756;BME280;32506;52.826;-1.192;2023-11-21T03:18:35;101237.78;;;10.45;66.71
46756;BME280;32506;52.826;-1.192;2023-11-21T03:21:01;101232.63;;;10.44;66.73
46756;BME280;32506;52.826;-1.192;2023-11-21T03:23:26;101239.81;;;10.43;66.84
46756;BME280;32506;52.826;-1.192;2023-11-21T03:25:52;101235.50;;;10.42;66.91
46756;BME280;32506;52.826;-1.192;2023-11-21T03:28:17;101237.34;;;10.41;66.74
46756;BME280;32506;52.826;-1.192;2023-11-21T03:30:43;101233.00;;;10.40;66.59
46756;BME280;32506;52.826;-1.192;2023-11-21T03:33:08;101247.41;;;10.39;66.79
46756;BME280;32506;52.826;-1.192;2023-11-21T03:35:34;101246.56;;;10.39;66.64
46756;BME280;32506;52.826;-1.192;2023-11-21T03:37:59;101243.28;;;10.37;66.75
46756;BME280;32506;52.826;-1.192;2023-11-21T03:40:24;101243.28;;;10.37;66.84
46756;BME280;32506;52.826;-1.192;2023-11-21T03:42:50;101246.97;;;10.36;66.56
46756;BME280;32506;52.826;-1.192;2023-11-21T03:45:16;101248.81;;;10.35;66.71
46756;BME280;32506;52.826;-1.192;2023-11-21T03:47:42;101245.31;;;10.35;66.57
46756;BME280;32506;52.826;-1.192;2023-11-21T03:50:07;101238.28;;;10.34;66.54
46756;BME280;32506;52.826;-1.192;2023-11-21T03:52:34;101250.00;;;10.33;66.72
46756;BME280;32506;52.826;-1.192;2023-11-21T03:55:00;101243.00;;;10.32;66.84
46756;BME280;32506;52.826;-1.192;2023-11-21T03:57:26;101251.81;;;10.32;66.50
46756;BME280;32506;52.826;-1.192;2023-11-21T03:59:53;101245.03;;;10.30;66.50
46756;BME280;32506;52.826;-1.192;2023-11-21T04:02:19;101252.03;;;10.31;66.53
46756;BME280;32506;52.826;-1.192;2023-11-21T04:04:44;101253.03;;;10.30;66.54
46756;BME280;32506;52.826;-1.192;2023-11-21T04:07:10;101252.22;;;10.29;66.74
46756;BME280;32506;52.826;-1.192;2023-11-21T04:09:36;101259.44;;;10.29;66.95
46756;BME280;32506;52.826;-1.192;2023-11-21T04:12:02;101266.59;;;10.28;66.58
46756;BME280;32506;52.826;-1.192;2023-11-21T04:14:27;101265.78;;;10.28;66.82
46756;BME280;32506;52.826;-1.192;2023-11-21T04:16:53;101272.13;;;10.27;66.68
46756;BME280;32506;52.826;-1.192;2023-11-21T04:19:19;101280.16;;;10.27;66.84
46756;BME280;32506;52.826;-1.192;2023-11-21T04:21:44;101276.03;;;10.24;66.78
46756;BME280;32506;52.826;-1.192;2023-11-21T04:24:10;101288.38;;;10.25;66.63
46756;BME280;32506;52.826;-1.192;2023-11-21T04:26:36;101286.91;;;10.22;66.54
46756;BME280;32506;52.826;-1.192;2023-11-21T04:29:01;101293.91;;;10.23;66.80
46756;BME280;32506;52.826;-1.192;2023-11-21T04:31:27;101298.41;;;10.23;66.63
46756;BME280;32506;52.826;-1.192;2023-11-21T04:33:52;101297.78;;;10.21;66.60
46756;BME280;32506;52.826;-1.192;2023-11-21T04:36:18;101304.16;;;10.20;66.67
46756;BME280;32506;52.826;-1.192;2023-11-21T04:38:45;101301.47;;;10.20;66.63
46756;BME280;32506;52.826;-1.192;2023-11-21T04:41:10;101314.81;;;10.20;66.60
46756;BME280;32506;52.826;-1.192;2023-11-21T04:43:37;101313.16;;;10.19;66.78
46756;BME280;32506;52.826;-1.192;2023-11-21T04:46:02;101309.69;;;10.18;66.67
46756;BME280;32506;52.826;-1.192;2023-11-21T04:48:28;101311.50;;;10.18;66.78
46756;BME280;32506;52.826;-1.192;2023-11-21T04:50:53;101316.84;;;10.18;66.55
46756;BME280;32506;52.826;-1.192;2023-11-21T04:53:19;101324.06;;;10.17;66.95
46756;BME280;32506;52.826;-1.192;2023-11-21T04:55:45;101318.09;;;10.15;66.69
46756;BME280;32506;52.826;-1.192;2023-11-21T04:58:11;101322.38;;;10.16;66.66
46756;BME280;32506;52.826;-1.192;2023-11-21T05:00:37;101323.59;;;10.14;66.82
46756;BME280;32506;52.826;-1.192;2023-11-21T05:03:03;101324.44;;;10.14;66.65
46756;BME280;32506;52.826;-1.192;2023-11-21T05:05:29;101333.28;;;10.15;66.76
46756;BME280;32506;52.826;-1.192;2023-11-21T05:07:55;101337.16;;;10.12;66.60
46756;BME280;32506;52.826;-1.192;2023-11-21T05:10:20;101341.47;;;10.13;66.73
46756;BME280;32506;52.826;-1.192;2023-11-21T05:12:47;101346.00;;;10.13;66.57
46756;BME280;32506;52.826;-1.192;2023-11-21T05:15:14;101354.84;;;10.13;66.92
46756;BME280;32506;52.826;-1.192;2023-11-21T05:17:40;101354.19;;;10.11;66.78
46756;BME280;32506;52.826;-1.192;2023-11-21T05:20:15;101361.19;;;10.12;66.71
46756;BME280;32506;52.826;-1.192;2023-11-21T05:22:49;101363.03;;;10.12;66.68
46756;BME280;32506;52.826;-1.192;2023-11-21T05:25:14;101357.69;;;10.12;66.80
46756;BME280;32506;52.826;-1.192;2023-11-21T05:27:40;101358.72;;;10.11;66.95
46756;BME280;32506;52.826;-1.192;2023-11-21T05:30:06;101356.03;;;10.11;66.77
46756;BME280;32506;52.826;-1.192;2023-11-21T05:32:34;101349.03;;;10.10;66.87
46756;BME280;32506;52.826;-1.192;2023-11-21T05:35:00;101352.56;;;10.10;66.91
46756;BME280;32506;52.826;-1.192;2023-11-21T05:37:26;101359.72;;;10.10;66.98
46756;BME280;32506;52.826;-1.192;2023-11-21T05:39:53;101359.72;;;10.10;66.90
46756;BME280;32506;52.826;-1.192;2023-11-21T05:42:18;101358.91;;;10.09;66.96
46756;BME280;32506;52.826;-1.192;2023-11-21T05:44:43;101366.91;;;10.09;67.05
46756;BME280;32506;52.826;-1.192;2023-11-21T05:47:09;101362.38;;;10.10;66.75
46756;BME280;32506;52.826;-1.192;2023-11-21T05:49:35;101371.44;;;10.08;66.89
46756;BME280;32506;52.826;-1.192;2023-11-21T05:52:01;101377.59;;;10.09;66.88
46756;BME280;32506;52.826;-1.192;2023-11-21T05:54:26;101384.81;;;10.08;67.14
46756;BME280;32506;52.826;-1.192;2023-11-21T05:56:52;101388.28;;;10.09;67.29
46756;BME280;32506;52.826;-1.192;2023-11-21T05:59:18;101394.63;;;10.08;66.99
46756;BME280;32506;52.826;-1.192;2023-11-21T06:01:43;101396.31;;;10.09;67.11
46756;BME280;32506;52.826;-1.192;2023-11-21T06:04:11;101405.31;;;10.08;67.03
46756;BME280;32506;52.826;-1.192;2023-11-21T06:06:36;101405.31;;;10.08;66.72
46756;BME280;32506;52.826;-1.192;2023-11-21T06:09:02;101409.84;;;10.07;66.82
46756;BME280;32506;52.826;-1.192;2023-11-21T06:11:27;101417.84;;;10.07;67.28
46756;BME280;32506;52.826;-1.192;2023-11-21T06:13:53;101425.88;;;10.07;66.94
46756;BME280;32506;52.826;-1.192;2023-11-21T06:16:18;101433.88;;;10.07;67.00
46756;BME280;32506;52.826;-1.192;2023-11-21T06:18:47;101443.72;;;10.07;67.04
46756;BME280;32506;52.826;-1.192;2023-11-21T06:21:13;101448.06;;;10.08;67.07
46756;BME280;32506;52.826;-1.192;2023-11-21T06:23:39;101438.56;;;10.05;67.00
46756;BME280;32506;52.826;-1.192;2023-11-21T06:26:05;101457.06;;;10.07;67.02
46756;BME280;32506;52.826;-1.192;2023-11-21T06:28:31;101449.06;;;10.07;66.73
46756;BME280;32506;52.826;-1.192;2023-11-21T06:30:56;101451.13;;;10.05;66.98
46756;BME280;32506;52.826;-1.192;2023-11-21T06:33:23;101449.44;;;10.04;67.28
46756;BME280;32506;52.826;-1.192;2023-11-21T06:35:48;101451.31;;;10.03;67.08
46756;BME280;32506;52.826;-1.192;2023-11-21T06:38:15;101456.66;;;10.03;67.19
46756;BME280;32506;52.826;-1.192;2023-11-21T06:40:40;101460.31;;;10.02;67.18
46756;BME280;32506;52.826;-1.192;2023-11-21T06:43:06;101466.69;;;10.01;67.26
46756;BME280;32506;52.826;-1.192;2023-11-21T06:45:33;101462.19;;;10.02;67.10
46756;BME280;32506;52.826;-1.192;2023-11-21T06:47:59;101463.19;;;10.01;67.01
46756;BME280;32506;52.826;-1.192;2023-11-21T06:50:24;101464.00;;;10.01;67.20
46756;BME280;32506;52.826;-1.192;2023-11-21T06:52:50;101468.72;;;9.99;67.02
46756;BME280;32506;52.826;-1.192;2023-11-21T06:55:15;101479.41;;;9.99;67.35
46756;BME280;32506;52.826;-1.192;2023-11-21T06:57:41;101478.75;;;9.97;67.15
46756;BME280;32506;52.826;-1.192;2023-11-21T07:00:07;101486.75;;;9.97;67.21
46756;BME280;32506;52.826;-1.192;2023-11-21T07:02:36;101506.31;;;9.98;67.10
46756;BME280;32506;52.826;-1.192;2023-11-21T07:05:02;101500.31;;;9.96;67.41
46756;BME280;32506;52.826;-1.192;2023-11-21T07:07:27;101502.16;;;9.95;67.24
46756;BME280;32506;52.826;-1.192;2023-11-21T07:09:53;101513.84;;;9.94;67.15
46756;BME280;32506;52.826;-1.192;2023-11-21T07:12:19;101522.66;;;9.95;67.44
46756;BME280;32506;52.826;-1.192;2023-11-21T07:14:44;101522.66;;;9.95;67.36
46756;BME280;32506;52.826;-1.192;2023-11-21T07:17:11;101518.34;;;9.94;67.19
46756;BME280;32506;52.826;-1.192;2023-11-21T07:19:37;101536.22;;;9.93;67.29
46756;BME280;32506;52.826;-1.192;2023-11-21T07:22:03;101541.56;;;9.93;67.63
46756;BME280;32506;52.826;-1.192;2023-11-21T07:24:31;101548.75;;;9.93;67.21
46756;BME280;32506;52.826;-1.192;2023-11-21T07:26:57;101552.63;;;9.90;67.16
46756;BME280;32506;52.826;-1.192;2023-11-21T07:29:24;101556.94;;;9.91;67.39
46756;BME280;32506;52.826;-1.192;2023-11-21T07:31:54;101564.97;;;9.91;67.47
46756;BME280;32506;52.826;-1.192;2023-11-21T07:34:20;101560.63;;;9.90;67.21
46756;BME280;32506;52.826;-1.192;2023-11-21T07:36:46;101567.78;;;9.89;67.57
46756;BME280;32506;52.826;-1.192;2023-11-21T07:39:12;101571.31;;;9.90;67.49
46756;BME280;32506;52.826;-1.192;2023-11-21T07:41:37;101574.97;;;9.89;67.50
46756;BME280;32506;52.826;-1.192;2023-11-21T07:44:10;101591.00;;;9.89;67.75
46756;BME280;32506;52.826;-1.192;2023-11-21T07:46:35;101590.19;;;9.88;67.49
46756;BME280;32506;52.826;-1.192;2023-11-21T07:49:01;101595.53;;;9.88;68.00
46756;BME280;32506;52.826;-1.192;2023-11-21T07:51:26;101595.53;;;9.88;67.73
46756;BME280;32506;52.826;-1.192;2023-11-21T07:53:51;101601.88;;;9.87;67.71
46756;BME280;32506;52.826;-1.192;2023-11-21T07:56:17;101607.84;;;9.89;67.65
46756;BME280;32506;52.826;-1.192;2023-11-21T07:58:43;101602.69;;;9.88;67.80
46756;BME280;32506;52.826;-1.192;2023-11-21T08:01:09;101607.22;;;9.87;67.93
46756;BME280;32506;52.826;-1.192;2023-11-21T08:03:35;101607.22;;;9.87;67.98
46756;BME280;32506;52.826;-1.192;2023-11-21T08:06:00;101609.88;;;9.87;67.78
46756;BME280;32506;52.826;-1.192;2023-11-21T08:08:28;101611.72;;;9.87;67.80
46756;BME280;32506;52.826;-1.192;2023-11-21T08:10:53;101623.22;;;9.87;68.02
46756;BME280;32506;52.826;-1.192;2023-11-21T08:13:26;101621.38;;;9.88;68.06
46756;BME280;32506;52.826;-1.192;2023-11-21T08:15:55;101625.91;;;9.87;68.06
46756;BME280;32506;52.826;-1.192;2023-11-21T08:18:28;101631.25;;;9.87;68.23
46756;BME280;32506;52.826;-1.192;2023-11-21T08:20:54;101640.06;;;9.88;68.20
46756;BME280;32506;52.826;-1.192;2023-11-21T08:23:20;101641.75;;;9.89;68.43
46756;BME280;32506;52.826;-1.192;2023-11-21T08:25:46;101652.41;;;9.89;68.67
46756;BME280;32506;52.826;-1.192;2023-11-21T08:28:12;101656.94;;;9.88;68.32
46756;BME280;32506;52.826;-1.192;2023-11-21T08:30:40;101663.91;;;9.89;68.46
46756;BME280;32506;52.826;-1.192;2023-11-21T08:33:06;101670.28;;;9.88;68.53
46756;BME280;32506;52.826;-1.192;2023-11-21T08:35:33;101674.59;;;9.89;68.45
46756;BME280;32506;52.826;-1.192;2023-11-21T08:37:59;101675.63;;;9.88;68.50
46756;BME280;32506;52.826;-1.192;2023-11-21T08:40:25;101693.28;;;9.89;68.64
46756;BME280;32506;52.826;-1.192;2023-11-21T08:42:51;101697.63;;;9.90;68.55
46756;BME280;32506;52.826;-1.192;2023-11-21T08:45:19;101702.16;;;9.90;68.56
46756;BME280;32506;52.826;-1.192;2023-11-21T08:47:44;101715.31;;;9.91;68.62
46756;BME280;32506;52.826;-1.192;2023-11-21T08:50:10;101710.78;;;9.92;68.74
46756;BME280;32506;52.826;-1.192;2023-11-21T08:52:38;101720.66;;;9.91;68.71
46756;BME280;32506;52.826;-1.192;2023-11-21T08:55:04;101733.00;;;9.93;68.73
46756;BME280;32506;52.826;-1.192;2023-11-21T08:57:36;101726.63;;;9.94;68.87
46756;BME280;32506;52.826;-1.192;2023-11-21T09:00:06;101732.81;;;9.94;68.93
46756;BME280;32506;52.826;-1.192;2023-11-21T09:02:37;101736.50;;;9.93;68.85
46756;BME280;32506;52.826;-1.192;2023-11-21T09:05:06;101741.66;;;9.95;68.88
46756;BME280;32506;52.826;-1.192;2023-11-21T09:07:32;101751.53;;;9.94;68.67
46756;BME280;32506;52.826;-1.192;2023-11-21T09:09:57;101756.84;;;9.94;68.74
46756;BME280;32506;52.826;-1.192;2023-11-21T09:12:23;101756.69;;;9.96;68.74
46756;BME280;32506;52.826;-1.192;2023-11-21T09:14:50;101760.16;;;9.96;68.58
46756;BME280;32506;52.826;-1.192;2023-11-21T09:17:16;101762.84;;;9.96;69.20
46756;BME280;32506;52.826;-1.192;2023-11-21T09:19:42;101776.84;;;9.98;68.56
46756;BME280;32506;52.826;-1.192;2023-11-21T09:22:10;101783.00;;;9.99;68.82
46756;BME280;32506;52.826;-1.192;2023-11-21T09:24:36;101790.84;;;10.00;68.98
46756;BME280;32506;52.826;-1.192;2023-11-21T09:27:03;101788.16;;;10.00;68.98
46756;BME280;32506;52.826;-1.192;2023-11-21T09:29:28;101789.66;;;10.03;69.02
46756;BME280;32506;52.826;-1.192;2023-11-21T09:31:54;101795.66;;;10.05;69.19
46756;BME280;32506;52.826;-1.192;2023-11-21T09:34:21;101806.16;;;10.06;68.95
46756;BME280;32506;52.826;-1.192;2023-11-21T09:36:47;101800.44;;;10.10;68.93
46756;BME280;32506;52.826;-1.192;2023-11-21T09:39:13;101803.78;;;10.12;68.70
46756;BME280;32506;52.826;-1.192;2023-11-21T09:41:50;101801.75;;;10.14;69.08
46756;BME280;32506;52.826;-1.192;2023-11-21T09:44:31;101798.06;;;10.15;68.85
46756;BME280;32506;52.826;-1.192;2023-11-21T09:46:59;101811.25;;;10.16;68.90
46756;BME280;32506;52.826;-1.192;2023-11-21T09:49:26;101826.94;;;10.19;69.01
46756;BME280;32506;52.826;-1.192;2023-11-21T09:51:54;101826.75;;;10.21;68.92
46756;BME280;32506;52.826;-1.192;2023-11-21T09:54:20;101847.75;;;10.24;68.64
46756;BME280;32506;52.826;-1.192;2023-11-21T09:56:46;101846.56;;;10.27;68.64
46756;BME280;32506;52.826;-1.192;2023-11-21T09:59:14;101847.25;;;10.29;68.56
46756;BME280;32506;52.826;-1.192;2023-11-21T10:01:41;101857.75;;;10.30;68.67
46756;BME280;32506;52.826;-1.192;2023-11-21T10:04:10;101861.91;;;10.33;68.72
46756;BME280;32506;52.826;-1.192;2023-11-21T10:06:41;101867.06;;;10.34;68.65
46756;BME280;32506;52.826;-1.192;2023-11-21T10:09:10;101864.88;;;10.38;68.73
46756;BME280;32506;52.826;-1.192;2023-11-21T10:11:40;101858.34;;;10.40;68.74
46756;BME280;32506;52.826;-1.192;2023-11-21T10:14:08;101860.84;;;10.42;68.60
46756;BME280;32506;52.826;-1.192;2023-11-21T10:16:35;101875.66;;;10.45;68.76
46756;BME280;32506;52.826;-1.192;2023-11-21T10:19:03;101875.53;;;10.46;68.62
46756;BME280;32506;52.826;-1.192;2023-11-21T10:21:29;101887.69;;;10.49;68.65
46756;BME280;32506;52.826;-1.192;2023-11-21T10:23:55;101896.16;;;10.52;68.50
46756;BME280;32506;52.826;-1.192;2023-11-21T10:26:22;101895.81;;;10.55;68.63
46756;BME280;32506;52.826;-1.192;2023-11-21T10:28:56;101892.78;;;10.58;68.69
46756;BME280;32506;52.826;-1.192;2023-11-21T10:31:22;101893.41;;;10.61;68.57
46756;BME280;32506;52.826;-1.192;2023-11-21T10:33:49;101889.38;;;10.65;68.74
46756;BME280;32506;52.826;-1.192;2023-11-21T10:36:27;101896.19;;;10.67;68.56
46756;BME280;32506;52.826;-1.192;2023-11-21T10:38:54;101895.19;;;10.68;68.22
46756;BME280;32506;52.826;-1.192;2023-11-21T10:41:20;101900.00;;;10.73;68.65
46756;BME280;32506;52.826;-1.192;2023-11-21T10:43:46;101906.81;;;10.75;68.63
46756;BME280;32506;52.826;-1.192;2023-11-21T10:46:13;101909.34;;;10.77;68.66
46756;BME280;32506;52.826;-1.192;2023-11-21T10:48:41;101901.94;;;10.79;68.53
46756;BME280;32506;52.826;-1.192;2023-11-21T10:51:07;101908.59;;;10.83;68.54
46756;BME280;32506;52.826;-1.192;2023-11-21T10:53:33;101911.75;;;10.87;68.31
46756;BME280;32506;52.826;-1.192;2023-11-21T10:56:06;101923.53;;;10.93;68.45
46756;BME280;32506;52.826;-1.192;2023-11-21T10:58:35;101934.91;;;10.95;68.32
46756;BME280;32506;52.826;-1.192;2023-11-21T11:01:03;101932.88;;;10.97;68.21
46756;BME280;32506;52.826;-1.192;2023-11-21T11:03:31;101937.03;;;10.99;68.27
46756;BME280;32506;52.826;-1.192;2023-11-21T11:05:59;101941.19;;;11.02;68.32
46756;BME280;32506;52.826;-1.192;2023-11-21T11:08:26;101940.00;;;11.04;68.24
46756;BME280;32506;52.826;-1.192;2023-11-21T11:10:53;101943.13;;;11.08;68.36
46756;BME280;32506;52.826;-1.192;2023-11-21T11:13:18;101950.13;;;11.09;68.18
46756;BME280;32506;52.826;-1.192;2023-11-21T11:15:47;101946.44;;;11.10;68.25
46756;BME280;32506;52.826;-1.192;2023-11-21T11:18:12;101954.09;;;11.13;68.28
46756;BME280;32506;52.826;-1.192;2023-11-21T11:20:39;101953.09;;;11.14;68.13
46756;BME280;32506;52.826;-1.192;2023-11-21T11:37:47;101968.25;;;11.22;68.16
46756;BME280;32506;52.826;-1.192;2023-11-21T11:40:12;101970.53;;;11.25;68.25
46756;BME280;32506;52.826;-1.192;2023-11-21T11:42:38;101973.03;;;11.27;68.02
46756;BME280;32506;52.826;-1.192;2023-11-21T11:45:24;101984.03;;;11.32;68.00
46756;BME280;32506;52.826;-1.192;2023-11-21T11:47:56;101993.72;;;11.33;68.25
46756;BME280;32506;52.826;-1.192;2023-11-21T11:50:22;102001.38;;;11.36;68.13
46756;BME280;32506;52.826;-1.192;2023-11-21T11:52:49;102004.03;;;11.36;68.03
46756;BME280;32506;52.826;-1.192;2023-11-21T11:55:17;102005.53;;;11.38;68.13
46756;BME280;32506;52.826;-1.192;2023-11-21T11:57:45;102002.66;;;11.40;68.09
46756;BME280;32506;52.826;-1.192;2023-11-21T12:02:44;102001.66;;;11.41;68.05
46756;BME280;32506;52.826;-1.192;2023-11-21T12:05:11;102004.16;;;11.42;68.10
46756;BME280;32506;52.826;-1.192;2023-11-21T12:08:01;102009.34;;;11.44;68.06
46756;BME280;32506;52.826;-1.192;2023-11-21T12:10:30;102004.00;;;11.44;67.97
46756;BME280;32506;52.826;-1.192;2023-11-21T12:13:13;102011.47;;;11.49;67.94
46756;BME280;32506;52.826;-1.192;2023-11-21T12:15:39;102013.13;;;11.50;67.85
46756;BME280;32506;52.826;-1.192;2023-11-21T12:18:06;102013.94;;;11.50;67.63
46756;BME280;32506;52.826;-1.192;2023-11-21T12:20:32;102009.25;;;11.52;67.45
46756;BME280;32506;52.826;-1.192;2023-11-21T12:23:04;102016.25;;;11.53;67.71
46756;BME280;32506;52.826;-1.192;2023-11-21T12:25:31;102010.72;;;11.55;67.58
46756;BME280;32506;52.826;-1.192;2023-11-21T12:28:02;102007.31;;;11.61;67.92
46756;BME280;32506;52.826;-1.192;2023-11-21T12:30:33;102011.50;;;12.15;67.81
46756;BME280;32506;52.826;-1.192;2023-11-21T12:33:01;102008.81;;;12.95;65.74
46756;BME280;32506;52.826;-1.192;2023-11-21T12:35:28;102010.22;;;13.41;63.89
46756;BME280;32506;52.826;-1.192;2023-11-21T12:37:55;102014.41;;;13.50;63.22
46756;BME280;32506;52.826;-1.192;2023-11-21T12:40:22;102009.19;;;13.42;63.41
46756;BME280;32506;52.826;-1.192;2023-11-21T12:42:51;102023.13;;;13.31;63.69
46756;BME280;32506;52.826;-1.192;2023-11-21T12:45:23;102016.00;;;13.16;63.79
46756;BME280;32506;52.826;-1.192;2023-11-21T12:47:55;102017.53;;;13.04;64.12
46756;BME280;32506;52.826;-1.192;2023-11-21T12:50:23;102023.44;;;12.92;64.17
46756;BME280;32506;52.826;-1.192;2023-11-21T12:52:52;102015.72;;;12.83;64.56
46756;BME280;32506;52.826;-1.192;2023-11-21T12:55:20;102023.72;;;12.76;64.97
46756;BME280;32506;52.826;-1.192;2023-11-21T12:57:51;102015.41;;;12.71;65.08